Sand Lake, Michigan
Current Conditions -  °F | °C
As of 10:52 AM on Friday 24 Oct 2014 (Local Time) from KFFX Reporting Station
Haze Haze  
Wind Chill: 52°   Ceiling: 700
Heat Index: 52°   Visibility: 3mi
Dew Point: 51°   Wind: 5mph
Humidity: 95%   Direction: 230°SW
Pressure: 30.03"   Gusts: NA
Location:  43.29°N, 85.52°W
Report Text: KFFX 241452Z AUTO 23004KT 3SM BR OVC007 11/10 A3003 RMK AO2 T01110103
Loading
Personal Weather Stations






























Interactive Weather Map
Tropical Storm Tracking
New forecast layout! Learn more

10-Day Weather Forecast

Advertisements
Track Severe Weather on mobile